sensor_id;sensor_type;location;lat;lon;timestamp;P1;durP1;ratioP1;P2;durP2;ratioP2
18228;SDS011;9239;50.932;3.142;2022-10-30T00:00:37;13.43;;;9.55;;
18228;SDS011;9239;50.932;3.142;2022-10-30T00:03:04;13.07;;;9.40;;
18228;SDS011;9239;50.932;3.142;2022-10-30T00:05:31;12.98;;;9.35;;
18228;SDS011;9239;50.932;3.142;2022-10-30T00:07:58;14.65;;;9.27;;
18228;SDS011;9239;50.932;3.142;2022-10-30T00:10:24;12.93;;;9.40;;
18228;SDS011;9239;50.932;3.142;2022-10-30T00:12:53;13.85;;;8.32;;
18228;SDS011;9239;50.932;3.142;2022-10-30T00:15:20;13.05;;;8.93;;
18228;SDS011;9239;50.932;3.142;2022-10-30T00:17:47;11.98;;;8.60;;
18228;SDS011;9239;50.932;3.142;2022-10-30T00:20:14;14.73;;;8.90;;
18228;SDS011;9239;50.932;3.142;2022-10-30T00:22:41;19.70;;;9.23;;
18228;SDS011;9239;50.932;3.142;2022-10-30T00:25:08;15.82;;;9.75;;
18228;SDS011;9239;50.932;3.142;2022-10-30T00:27:35;15.80;;;10.02;;
18228;SDS011;9239;50.932;3.142;2022-10-30T00:30:03;16.17;;;10.20;;
18228;SDS011;9239;50.932;3.142;2022-10-30T00:32:31;18.00;;;9.27;;
18228;SDS011;9239;50.932;3.142;2022-10-30T00:34:58;17.80;;;9.68;;
18228;SDS011;9239;50.932;3.142;2022-10-30T00:37:25;15.77;;;8.80;;
18228;SDS011;9239;50.932;3.142;2022-10-30T00:39:51;14.82;;;9.23;;
18228;SDS011;9239;50.932;3.142;2022-10-30T00:42:18;13.15;;;9.13;;
18228;SDS011;9239;50.932;3.142;2022-10-30T00:44:46;12.60;;;8.65;;
18228;SDS011;9239;50.932;3.142;2022-10-30T00:47:17;16.40;;;8.35;;
18228;SDS011;9239;50.932;3.142;2022-10-30T00:49:52;13.10;;;7.63;;
18228;SDS011;9239;50.932;3.142;2022-10-30T00:52:25;14.77;;;8.90;;
18228;SDS011;9239;50.932;3.142;2022-10-30T00:54:56;9.98;;;7.82;;
18228;SDS011;9239;50.932;3.142;2022-10-30T00:57:25;14.70;;;8.82;;
18228;SDS011;9239;50.932;3.142;2022-10-30T00:59:52;14.63;;;8.73;;
18228;SDS011;9239;50.932;3.142;2022-10-30T01:02:20;16.02;;;9.27;;
18228;SDS011;9239;50.932;3.142;2022-10-30T01:04:48;15.25;;;8.80;;
18228;SDS011;9239;50.932;3.142;2022-10-30T01:07:16;14.35;;;8.95;;
18228;SDS011;9239;50.932;3.142;2022-10-30T01:09:43;16.42;;;7.82;;
18228;SDS011;9239;50.932;3.142;2022-10-30T01:12:12;12.20;;;8.88;;
18228;SDS011;9239;50.932;3.142;2022-10-30T01:14:40;19.58;;;9.25;;
18228;SDS011;9239;50.932;3.142;2022-10-30T01:17:14;13.90;;;8.80;;
18228;SDS011;9239;50.932;3.142;2022-10-30T01:19:55;12.90;;;8.65;;
18228;SDS011;9239;50.932;3.142;2022-10-30T01:22:36;15.75;;;8.05;;
18228;SDS011;9239;50.932;3.142;2022-10-30T01:25:11;15.57;;;8.55;;
18228;SDS011;9239;50.932;3.142;2022-10-30T01:27:53;15.38;;;9.23;;
18228;SDS011;9239;50.932;3.142;2022-10-30T01:30:31;11.38;;;8.15;;
18228;SDS011;9239;50.932;3.142;2022-10-30T01:33:13;11.27;;;7.80;;
18228;SDS011;9239;50.932;3.142;2022-10-30T01:35:49;17.50;;;9.05;;
18228;SDS011;9239;50.932;3.142;2022-10-30T01:38:22;15.38;;;8.52;;
18228;SDS011;9239;50.932;3.142;2022-10-30T01:40:53;11.82;;;8.63;;
18228;SDS011;9239;50.932;3.142;2022-10-30T01:43:20;9.93;;;7.35;;
18228;SDS011;9239;50.932;3.142;2022-10-30T01:45:59;14.20;;;8.95;;
18228;SDS011;9239;50.932;3.142;2022-10-30T01:48:43;14.65;;;9.55;;
18228;SDS011;9239;50.932;3.142;2022-10-30T01:51:25;13.05;;;8.77;;
18228;SDS011;9239;50.932;3.142;2022-10-30T01:54:05;11.90;;;8.80;;
18228;SDS011;9239;50.932;3.142;2022-10-30T01:56:44;12.95;;;8.50;;
18228;SDS011;9239;50.932;3.142;2022-10-30T01:59:24;12.02;;;7.90;;
18228;SDS011;9239;50.932;3.142;2022-10-30T02:01:55;12.07;;;9.10;;
18228;SDS011;9239;50.932;3.142;2022-10-30T02:04:24;15.23;;;9.13;;
18228;SDS011;9239;50.932;3.142;2022-10-30T02:06:51;11.20;;;9.63;;
18228;SDS011;9239;50.932;3.142;2022-10-30T02:09:18;20.52;;;11.27;;
18228;SDS011;9239;50.932;3.142;2022-10-30T02:11:45;20.23;;;10.80;;
18228;SDS011;9239;50.932;3.142;2022-10-30T02:14:15;17.60;;;10.10;;
18228;SDS011;9239;50.932;3.142;2022-10-30T02:16:46;16.63;;;9.55;;
18228;SDS011;9239;50.932;3.142;2022-10-30T02:19:15;14.05;;;10.20;;
18228;SDS011;9239;50.932;3.142;2022-10-30T02:21:44;14.45;;;9.63;;
18228;SDS011;9239;50.932;3.142;2022-10-30T02:24:11;11.77;;;9.07;;
18228;SDS011;9239;50.932;3.142;2022-10-30T02:26:38;12.02;;;9.30;;
18228;SDS011;9239;50.932;3.142;2022-10-30T02:29:04;14.85;;;9.77;;
18228;SDS011;9239;50.932;3.142;2022-10-30T02:31:31;13.07;;;10.00;;
18228;SDS011;9239;50.932;3.142;2022-10-30T02:33:58;16.52;;;9.75;;
18228;SDS011;9239;50.932;3.142;2022-10-30T02:36:25;13.25;;;9.50;;
18228;SDS011;9239;50.932;3.142;2022-10-30T02:38:53;13.75;;;8.48;;
18228;SDS011;9239;50.932;3.142;2022-10-30T02:41:20;11.63;;;9.07;;
18228;SDS011;9239;50.932;3.142;2022-10-30T02:43:49;16.27;;;10.05;;
18228;SDS011;9239;50.932;3.142;2022-10-30T02:46:15;14.13;;;9.20;;
18228;SDS011;9239;50.932;3.142;2022-10-30T02:48:42;15.88;;;10.30;;
18228;SDS011;9239;50.932;3.142;2022-10-30T02:51:09;14.82;;;10.32;;
18228;SDS011;9239;50.932;3.142;2022-10-30T02:53:36;15.60;;;9.35;;
18228;SDS011;9239;50.932;3.142;2022-10-30T02:56:06;15.35;;;10.38;;
18228;SDS011;9239;50.932;3.142;2022-10-30T02:58:35;15.07;;;9.32;;
18228;SDS011;9239;50.932;3.142;2022-10-30T03:01:05;13.88;;;10.20;;
18228;SDS011;9239;50.932;3.142;2022-10-30T03:03:33;12.73;;;9.65;;
18228;SDS011;9239;50.932;3.142;2022-10-30T03:06:00;12.95;;;9.38;;
18228;SDS011;9239;50.932;3.142;2022-10-30T03:08:28;13.57;;;9.70;;
18228;SDS011;9239;50.932;3.142;2022-10-30T03:10:59;11.52;;;9.35;;
18228;SDS011;9239;50.932;3.142;2022-10-30T03:13:28;13.07;;;9.55;;
18228;SDS011;9239;50.932;3.142;2022-10-30T03:15:59;12.20;;;9.75;;
18228;SDS011;9239;50.932;3.142;2022-10-30T03:18:27;14.43;;;9.07;;
18228;SDS011;9239;50.932;3.142;2022-10-30T03:20:55;14.20;;;9.90;;
18228;SDS011;9239;50.932;3.142;2022-10-30T03:23:23;13.00;;;8.77;;
18228;SDS011;9239;50.932;3.142;2022-10-30T03:25:53;18.05;;;10.20;;
18228;SDS011;9239;50.932;3.142;2022-10-30T03:28:21;14.32;;;9.88;;
18228;SDS011;9239;50.932;3.142;2022-10-30T03:30:51;14.88;;;9.80;;
18228;SDS011;9239;50.932;3.142;2022-10-30T03:33:23;13.23;;;9.57;;
18228;SDS011;9239;50.932;3.142;2022-10-30T03:35:50;13.80;;;9.77;;
18228;SDS011;9239;50.932;3.142;2022-10-30T03:38:17;12.68;;;9.73;;
18228;SDS011;9239;50.932;3.142;2022-10-30T03:40:44;13.23;;;9.70;;
18228;SDS011;9239;50.932;3.142;2022-10-30T03:43:10;12.18;;;9.45;;
18228;SDS011;9239;50.932;3.142;2022-10-30T03:45:37;15.55;;;10.57;;
18228;SDS011;9239;50.932;3.142;2022-10-30T03:48:06;15.77;;;11.10;;
18228;SDS011;9239;50.932;3.142;2022-10-30T03:50:33;17.63;;;11.13;;
18228;SDS011;9239;50.932;3.142;2022-10-30T03:53:00;16.70;;;9.95;;
18228;SDS011;9239;50.932;3.142;2022-10-30T03:55:28;18.77;;;11.38;;
18228;SDS011;9239;50.932;3.142;2022-10-30T03:57:54;17.83;;;12.10;;
18228;SDS011;9239;50.932;3.142;2022-10-30T04:00:21;17.33;;;11.63;;
18228;SDS011;9239;50.932;3.142;2022-10-30T04:02:49;15.82;;;10.88;;
18228;SDS011;9239;50.932;3.142;2022-10-30T04:05:19;16.70;;;11.15;;
18228;SDS011;9239;50.932;3.142;2022-10-30T04:07:48;19.15;;;10.82;;
18228;SDS011;9239;50.932;3.142;2022-10-30T04:10:20;16.27;;;11.07;;
18228;SDS011;9239;50.932;3.142;2022-10-30T04:12:47;15.95;;;10.82;;
18228;SDS011;9239;50.932;3.142;2022-10-30T04:15:13;15.70;;;10.73;;
18228;SDS011;9239;50.932;3.142;2022-10-30T04:17:46;17.42;;;10.32;;
18228;SDS011;9239;50.932;3.142;2022-10-30T04:20:14;12.90;;;10.45;;
18228;SDS011;9239;50.932;3.142;2022-10-30T04:22:43;17.48;;;10.27;;
18228;SDS011;9239;50.932;3.142;2022-10-30T04:25:10;12.20;;;9.65;;
18228;SDS011;9239;50.932;3.142;2022-10-30T04:27:40;15.10;;;9.80;;
18228;SDS011;9239;50.932;3.142;2022-10-30T04:30:08;13.60;;;10.05;;
18228;SDS011;9239;50.932;3.142;2022-10-30T04:32:44;16.27;;;10.32;;
18228;SDS011;9239;50.932;3.142;2022-10-30T04:35:11;16.50;;;10.35;;
18228;SDS011;9239;50.932;3.142;2022-10-30T04:37:38;15.73;;;10.40;;
18228;SDS011;9239;50.932;3.142;2022-10-30T04:40:07;18.33;;;11.07;;
18228;SDS011;9239;50.932;3.142;2022-10-30T04:42:35;12.00;;;9.18;;
18228;SDS011;9239;50.932;3.142;2022-10-30T04:45:02;14.15;;;10.05;;
18228;SDS011;9239;50.932;3.142;2022-10-30T04:47:29;18.40;;;9.63;;
18228;SDS011;9239;50.932;3.142;2022-10-30T04:49:56;12.40;;;9.65;;
18228;SDS011;9239;50.932;3.142;2022-10-30T04:52:23;19.42;;;9.93;;
18228;SDS011;9239;50.932;3.142;2022-10-30T04:54:50;12.88;;;9.90;;
18228;SDS011;9239;50.932;3.142;2022-10-30T04:57:18;13.05;;;9.82;;
18228;SDS011;9239;50.932;3.142;2022-10-30T04:59:45;14.65;;;9.82;;
18228;SDS011;9239;50.932;3.142;2022-10-30T05:02:12;12.88;;;10.15;;
18228;SDS011;9239;50.932;3.142;2022-10-30T05:04:38;12.98;;;10.07;;
18228;SDS011;9239;50.932;3.142;2022-10-30T05:07:05;14.10;;;9.82;;
18228;SDS011;9239;50.932;3.142;2022-10-30T05:09:32;15.57;;;10.27;;
18228;SDS011;9239;50.932;3.142;2022-10-30T05:11:59;14.95;;;10.38;;
18228;SDS011;9239;50.932;3.142;2022-10-30T05:14:28;18.02;;;11.02;;
18228;SDS011;9239;50.932;3.142;2022-10-30T05:16:56;14.30;;;10.05;;
18228;SDS011;9239;50.932;3.142;2022-10-30T05:19:23;13.88;;;9.95;;
18228;SDS011;9239;50.932;3.142;2022-10-30T05:21:50;17.45;;;9.38;;
18228;SDS011;9239;50.932;3.142;2022-10-30T05:24:17;14.32;;;10.50;;
18228;SDS011;9239;50.932;3.142;2022-10-30T05:26:44;13.90;;;9.82;;
18228;SDS011;9239;50.932;3.142;2022-10-30T05:29:12;15.07;;;10.73;;
18228;SDS011;9239;50.932;3.142;2022-10-30T05:31:40;16.73;;;10.38;;
18228;SDS011;9239;50.932;3.142;2022-10-30T05:34:07;13.63;;;9.90;;
18228;SDS011;9239;50.932;3.142;2022-10-30T05:36:34;15.43;;;9.73;;
18228;SDS011;9239;50.932;3.142;2022-10-30T05:39:01;13.05;;;10.05;;
18228;SDS011;9239;50.932;3.142;2022-10-30T05:41:28;14.90;;;9.52;;
18228;SDS011;9239;50.932;3.142;2022-10-30T05:43:55;14.73;;;9.82;;
18228;SDS011;9239;50.932;3.142;2022-10-30T05:46:22;13.93;;;10.27;;
18228;SDS011;9239;50.932;3.142;2022-10-30T05:48:50;10.70;;;9.15;;
18228;SDS011;9239;50.932;3.142;2022-10-30T05:51:17;13.77;;;9.80;;
18228;SDS011;9239;50.932;3.142;2022-10-30T05:53:46;12.77;;;9.73;;
18228;SDS011;9239;50.932;3.142;2022-10-30T05:56:13;15.27;;;9.73;;
18228;SDS011;9239;50.932;3.142;2022-10-30T05:58:40;12.65;;;9.57;;
18228;SDS011;9239;50.932;3.142;2022-10-30T06:01:07;12.65;;;9.82;;
18228;SDS011;9239;50.932;3.142;2022-10-30T06:03:34;10.85;;;9.60;;
18228;SDS011;9239;50.932;3.142;2022-10-30T06:06:02;11.98;;;10.05;;
18228;SDS011;9239;50.932;3.142;2022-10-30T06:08:29;17.83;;;10.32;;
18228;SDS011;9239;50.932;3.142;2022-10-30T06:10:56;15.73;;;10.68;;
18228;SDS011;9239;50.932;3.142;2022-10-30T06:13:23;14.30;;;9.63;;
18228;SDS011;9239;50.932;3.142;2022-10-30T06:15:52;12.75;;;10.05;;
18228;SDS011;9239;50.932;3.142;2022-10-30T06:18:19;16.65;;;9.82;;
18228;SDS011;9239;50.932;3.142;2022-10-30T06:20:47;15.60;;;9.65;;
18228;SDS011;9239;50.932;3.142;2022-10-30T06:23:15;15.90;;;10.90;;
18228;SDS011;9239;50.932;3.142;2022-10-30T06:25:42;12.88;;;9.35;;
18228;SDS011;9239;50.932;3.142;2022-10-30T06:28:09;15.13;;;10.13;;
18228;SDS011;9239;50.932;3.142;2022-10-30T06:30:37;18.80;;;10.40;;
18228;SDS011;9239;50.932;3.142;2022-10-30T06:33:05;15.05;;;10.88;;
18228;SDS011;9239;50.932;3.142;2022-10-30T06:35:33;13.15;;;10.77;;
18228;SDS011;9239;50.932;3.142;2022-10-30T06:38:00;12.65;;;10.02;;
18228;SDS011;9239;50.932;3.142;2022-10-30T06:40:28;17.73;;;9.93;;
18228;SDS011;9239;50.932;3.142;2022-10-30T06:42:55;15.95;;;10.20;;
18228;SDS011;9239;50.932;3.142;2022-10-30T06:45:22;12.40;;;9.60;;
18228;SDS011;9239;50.932;3.142;2022-10-30T06:47:49;12.88;;;9.70;;
18228;SDS011;9239;50.932;3.142;2022-10-30T06:50:18;14.35;;;10.18;;
18228;SDS011;9239;50.932;3.142;2022-10-30T06:52:46;12.32;;;9.80;;
18228;SDS011;9239;50.932;3.142;2022-10-30T06:55:13;16.35;;;10.75;;
18228;SDS011;9239;50.932;3.142;2022-10-30T06:57:42;16.38;;;10.18;;
18228;SDS011;9239;50.932;3.142;2022-10-30T07:00:09;14.20;;;9.50;;
18228;SDS011;9239;50.932;3.142;2022-10-30T07:02:37;11.00;;;9.40;;
18228;SDS011;9239;50.932;3.142;2022-10-30T07:05:04;16.60;;;11.10;;
18228;SDS011;9239;50.932;3.142;2022-10-30T07:07:31;14.57;;;10.63;;
18228;SDS011;9239;50.932;3.142;2022-10-30T07:09:58;11.52;;;9.75;;
18228;SDS011;9239;50.932;3.142;2022-10-30T07:12:25;12.65;;;10.23;;
18228;SDS011;9239;50.932;3.142;2022-10-30T07:14:53;13.00;;;9.85;;
18228;SDS011;9239;50.932;3.142;2022-10-30T07:17:20;14.43;;;9.30;;
18228;SDS011;9239;50.932;3.142;2022-10-30T07:19:47;12.50;;;9.38;;
18228;SDS011;9239;50.932;3.142;2022-10-30T07:22:14;17.40;;;10.48;;
18228;SDS011;9239;50.932;3.142;2022-10-30T07:24:41;15.52;;;10.18;;
18228;SDS011;9239;50.932;3.142;2022-10-30T07:27:07;13.23;;;10.38;;
18228;SDS011;9239;50.932;3.142;2022-10-30T07:29:34;17.30;;;11.30;;
18228;SDS011;9239;50.932;3.142;2022-10-30T07:32:03;12.27;;;10.00;;
18228;SDS011;9239;50.932;3.142;2022-10-30T07:34:30;14.95;;;10.25;;
18228;SDS011;9239;50.932;3.142;2022-10-30T07:36:58;10.38;;;9.38;;
18228;SDS011;9239;50.932;3.142;2022-10-30T07:39:25;15.43;;;10.80;;
18228;SDS011;9239;50.932;3.142;2022-10-30T07:41:52;10.85;;;9.75;;
18228;SDS011;9239;50.932;3.142;2022-10-30T07:44:18;14.50;;;10.57;;
18228;SDS011;9239;50.932;3.142;2022-10-30T07:46:45;15.63;;;10.07;;
18228;SDS011;9239;50.932;3.142;2022-10-30T07:49:13;14.05;;;10.15;;
18228;SDS011;9239;50.932;3.142;2022-10-30T07:51:40;13.02;;;10.35;;
18228;SDS011;9239;50.932;3.142;2022-10-30T07:54:07;13.90;;;11.38;;
18228;SDS011;9239;50.932;3.142;2022-10-30T07:56:34;17.05;;;10.85;;
18228;SDS011;9239;50.932;3.142;2022-10-30T07:59:01;15.27;;;10.57;;
18228;SDS011;9239;50.932;3.142;2022-10-30T08:01:28;17.05;;;10.55;;
18228;SDS011;9239;50.932;3.142;2022-10-30T08:03:54;12.48;;;9.43;;
18228;SDS011;9239;50.932;3.142;2022-10-30T08:06:23;12.60;;;9.40;;
18228;SDS011;9239;50.932;3.142;2022-10-30T08:08:50;14.68;;;10.18;;
18228;SDS011;9239;50.932;3.142;2022-10-30T08:11:16;16.80;;;10.00;;
18228;SDS011;9239;50.932;3.142;2022-10-30T08:13:43;11.43;;;9.23;;
18228;SDS011;9239;50.932;3.142;2022-10-30T08:16:10;13.85;;;8.68;;
18228;SDS011;9239;50.932;3.142;2022-10-30T08:18:38;13.73;;;8.85;;
18228;SDS011;9239;50.932;3.142;2022-10-30T08:21:06;14.00;;;8.88;;
18228;SDS011;9239;50.932;3.142;2022-10-30T08:23:34;14.40;;;9.15;;
18228;SDS011;9239;50.932;3.142;2022-10-30T08:26:02;12.70;;;9.32;;
18228;SDS011;9239;50.932;3.142;2022-10-30T08:28:29;14.23;;;9.82;;
18228;SDS011;9239;50.932;3.142;2022-10-30T08:30:56;16.25;;;9.10;;
18228;SDS011;9239;50.932;3.142;2022-10-30T08:33:24;13.65;;;8.80;;
18228;SDS011;9239;50.932;3.142;2022-10-30T08:35:51;13.90;;;9.20;;
18228;SDS011;9239;50.932;3.142;2022-10-30T08:38:20;13.50;;;9.30;;
18228;SDS011;9239;50.932;3.142;2022-10-30T08:40:49;10.68;;;9.18;;
18228;SDS011;9239;50.932;3.142;2022-10-30T08:43:16;18.48;;;10.23;;
18228;SDS011;9239;50.932;3.142;2022-10-30T08:45:43;15.73;;;9.45;;
18228;SDS011;9239;50.932;3.142;2022-10-30T08:48:10;14.25;;;9.43;;
18228;SDS011;9239;50.932;3.142;2022-10-30T08:50:38;15.82;;;9.18;;
18228;SDS011;9239;50.932;3.142;2022-10-30T08:53:06;13.15;;;9.52;;
18228;SDS011;9239;50.932;3.142;2022-10-30T08:55:35;13.23;;;8.77;;
18228;SDS011;9239;50.932;3.142;2022-10-30T08:58:03;12.18;;;8.90;;
18228;SDS011;9239;50.932;3.142;2022-10-30T09:00:30;16.90;;;9.43;;
18228;SDS011;9239;50.932;3.142;2022-10-30T09:02:58;15.15;;;9.57;;
18228;SDS011;9239;50.932;3.142;2022-10-30T09:05:25;14.30;;;9.35;;
18228;SDS011;9239;50.932;3.142;2022-10-30T09:07:54;10.15;;;8.48;;
18228;SDS011;9239;50.932;3.142;2022-10-30T09:10:22;13.00;;;8.35;;
18228;SDS011;9239;50.932;3.142;2022-10-30T09:12:52;14.55;;;8.50;;
18228;SDS011;9239;50.932;3.142;2022-10-30T09:15:21;14.73;;;9.02;;
18228;SDS011;9239;50.932;3.142;2022-10-30T09:17:53;16.48;;;9.57;;
18228;SDS011;9239;50.932;3.142;2022-10-30T09:20:21;16.98;;;8.48;;
18228;SDS011;9239;50.932;3.142;2022-10-30T09:22:48;10.85;;;8.50;;
18228;SDS011;9239;50.932;3.142;2022-10-30T09:25:15;10.00;;;8.07;;
18228;SDS011;9239;50.932;3.142;2022-10-30T09:27:42;11.98;;;8.90;;
18228;SDS011;9239;50.932;3.142;2022-10-30T09:30:09;14.75;;;8.73;;
18228;SDS011;9239;50.932;3.142;2022-10-30T09:32:38;14.93;;;9.38;;
18228;SDS011;9239;50.932;3.142;2022-10-30T09:35:05;11.02;;;7.75;;
18228;SDS011;9239;50.932;3.142;2022-10-30T09:37:33;11.68;;;8.07;;
18228;SDS011;9239;50.932;3.142;2022-10-30T09:40:00;8.98;;;7.03;;
18228;SDS011;9239;50.932;3.142;2022-10-30T09:42:39;9.48;;;7.78;;
18228;SDS011;9239;50.932;3.142;2022-10-30T09:45:17;11.77;;;6.93;;
18228;SDS011;9239;50.932;3.142;2022-10-30T09:48:14;10.55;;;7.97;;
18228;SDS011;9239;50.932;3.142;2022-10-30T09:50:55;12.23;;;7.90;;
18228;SDS011;9239;50.932;3.142;2022-10-30T09:53:36;9.18;;;7.13;;
18228;SDS011;9239;50.932;3.142;2022-10-30T09:56:14;7.30;;;5.93;;
18228;SDS011;9239;50.932;3.142;2022-10-30T09:58:51;8.80;;;6.20;;
18228;SDS011;9239;50.932;3.142;2022-10-30T10:01:26;9.35;;;6.75;;
18228;SDS011;9239;50.932;3.142;2022-10-30T10:04:00;9.23;;;6.75;;
18228;SDS011;9239;50.932;3.142;2022-10-30T10:06:33;9.20;;;6.53;;
18228;SDS011;9239;50.932;3.142;2022-10-30T10:09:05;9.35;;;7.00;;
18228;SDS011;9239;50.932;3.142;2022-10-30T10:11:38;8.23;;;6.00;;
18228;SDS011;9239;50.932;3.142;2022-10-30T10:14:11;7.18;;;5.82;;
18228;SDS011;9239;50.932;3.142;2022-10-30T10:16:41;8.32;;;6.35;;
18228;SDS011;9239;50.932;3.142;2022-10-30T10:19:13;9.07;;;6.10;;
18228;SDS011;9239;50.932;3.142;2022-10-30T10:21:45;10.88;;;7.43;;
18228;SDS011;9239;50.932;3.142;2022-10-30T10:24:16;10.07;;;6.43;;
18228;SDS011;9239;50.932;3.142;2022-10-30T10:26:47;10.10;;;7.63;;
18228;SDS011;9239;50.932;3.142;2022-10-30T10:29:26;9.20;;;6.68;;
18228;SDS011;9239;50.932;3.142;2022-10-30T10:32:09;7.20;;;6.47;;
18228;SDS011;9239;50.932;3.142;2022-10-30T10:35:16;11.35;;;6.60;;
18228;SDS011;9239;50.932;3.142;2022-10-30T10:37:58;9.70;;;5.95;;
18228;SDS011;9239;50.932;3.142;2022-10-30T10:40:38;5.93;;;5.20;;
18228;SDS011;9239;50.932;3.142;2022-10-30T10:43:17;9.38;;;5.88;;
18228;SDS011;9239;50.932;3.142;2022-10-30T10:45:55;7.32;;;5.75;;
18228;SDS011;9239;50.932;3.142;2022-10-30T10:48:46;8.05;;;5.80;;
18228;SDS011;9239;50.932;3.142;2022-10-30T10:51:23;10.85;;;6.35;;
18228;SDS011;9239;50.932;3.142;2022-10-30T10:53:57;10.00;;;6.53;;
18228;SDS011;9239;50.932;3.142;2022-10-30T10:56:27;11.15;;;6.20;;
18228;SDS011;9239;50.932;3.142;2022-10-30T10:58:58;14.13;;;6.72;;
18228;SDS011;9239;50.932;3.142;2022-10-30T11:01:31;11.07;;;6.60;;
18228;SDS011;9239;50.932;3.142;2022-10-30T11:04:08;7.93;;;6.28;;
18228;SDS011;9239;50.932;3.142;2022-10-30T11:06:41;10.75;;;6.60;;
18228;SDS011;9239;50.932;3.142;2022-10-30T11:09:13;7.88;;;6.18;;
18228;SDS011;9239;50.932;3.142;2022-10-30T11:11:43;9.32;;;6.28;;
18228;SDS011;9239;50.932;3.142;2022-10-30T11:14:11;7.55;;;5.57;;
18228;SDS011;9239;50.932;3.142;2022-10-30T11:16:45;10.73;;;5.07;;
18228;SDS011;9239;50.932;3.142;2022-10-30T11:19:19;8.15;;;5.43;;
18228;SDS011;9239;50.932;3.142;2022-10-30T11:21:48;10.02;;;5.90;;
18228;SDS011;9239;50.932;3.142;2022-10-30T11:24:25;7.22;;;5.57;;
18228;SDS011;9239;50.932;3.142;2022-10-30T11:26:54;11.60;;;5.82;;
18228;SDS011;9239;50.932;3.142;2022-10-30T11:29:23;9.88;;;6.03;;
18228;SDS011;9239;50.932;3.142;2022-10-30T11:31:58;10.18;;;6.03;;
18228;SDS011;9239;50.932;3.142;2022-10-30T11:34:31;9.07;;;5.20;;
18228;SDS011;9239;50.932;3.142;2022-10-30T11:37:01;8.98;;;5.43;;
18228;SDS011;9239;50.932;3.142;2022-10-30T11:39:29;12.70;;;6.38;;
18228;SDS011;9239;50.932;3.142;2022-10-30T11:41:59;7.18;;;5.80;;
18228;SDS011;9239;50.932;3.142;2022-10-30T11:44:30;7.70;;;6.47;;
18228;SDS011;9239;50.932;3.142;2022-10-30T11:47:01;9.02;;;6.38;;
18228;SDS011;9239;50.932;3.142;2022-10-30T11:49:33;6.85;;;6.00;;
18228;SDS011;9239;50.932;3.142;2022-10-30T11:52:11;7.60;;;5.72;;
18228;SDS011;9239;50.932;3.142;2022-10-30T11:54:40;10.25;;;6.35;;
18228;SDS011;9239;50.932;3.142;2022-10-30T11:57:18;12.32;;;5.97;;
18228;SDS011;9239;50.932;3.142;2022-10-30T11:59:48;20.77;;;6.35;;
18228;SDS011;9239;50.932;3.142;2022-10-30T12:02:18;10.13;;;5.53;;
18228;SDS011;9239;50.932;3.142;2022-10-30T12:04:48;9.05;;;5.25;;
18228;SDS011;9239;50.932;3.142;2022-10-30T12:07:24;9.13;;;5.10;;
18228;SDS011;9239;50.932;3.142;2022-10-30T12:09:53;7.13;;;4.70;;
18228;SDS011;9239;50.932;3.142;2022-10-30T12:12:24;6.43;;;5.07;;
18228;SDS011;9239;50.932;3.142;2022-10-30T12:14:53;8.90;;;5.20;;
18228;SDS011;9239;50.932;3.142;2022-10-30T12:17:20;7.47;;;4.95;;
18228;SDS011;9239;50.932;3.142;2022-10-30T12:19:49;6.93;;;4.63;;
18228;SDS011;9239;50.932;3.142;2022-10-30T12:22:29;7.00;;;4.45;;
18228;SDS011;9239;50.932;3.142;2022-10-30T12:24:57;11.18;;;5.18;;
18228;SDS011;9239;50.932;3.142;2022-10-30T12:27:27;6.53;;;4.18;;
18228;SDS011;9239;50.932;3.142;2022-10-30T12:30:00;9.88;;;5.38;;
18228;SDS011;9239;50.932;3.142;2022-10-30T12:32:34;6.95;;;4.80;;
18228;SDS011;9239;50.932;3.142;2022-10-30T12:35:14;13.20;;;5.70;;
18228;SDS011;9239;50.932;3.142;2022-10-30T12:37:51;10.00;;;5.38;;
18228;SDS011;9239;50.932;3.142;2022-10-30T12:40:20;11.48;;;5.63;;
18228;SDS011;9239;50.932;3.142;2022-10-30T12:42:53;9.48;;;5.55;;
18228;SDS011;9239;50.932;3.142;2022-10-30T12:45:27;9.60;;;5.47;;
18228;SDS011;9239;50.932;3.142;2022-10-30T12:47:58;5.97;;;4.93;;
18228;SDS011;9239;50.932;3.142;2022-10-30T12:50:34;6.55;;;4.55;;
18228;SDS011;9239;50.932;3.142;2022-10-30T12:53:10;5.53;;;2.85;;
18228;SDS011;9239;50.932;3.142;2022-10-30T12:55:47;8.77;;;3.58;;
18228;SDS011;9239;50.932;3.142;2022-10-30T12:58:20;9.70;;;2.80;;
18228;SDS011;9239;50.932;3.142;2022-10-30T13:00:54;4.28;;;2.90;;
18228;SDS011;9239;50.932;3.142;2022-10-30T13:03:27;7.68;;;3.20;;
18228;SDS011;9239;50.932;3.142;2022-10-30T13:05:58;8.85;;;3.63;;
18228;SDS011;9239;50.932;3.142;2022-10-30T13:08:33;7.07;;;3.22;;
18228;SDS011;9239;50.932;3.142;2022-10-30T13:11:06;6.05;;;3.00;;
18228;SDS011;9239;50.932;3.142;2022-10-30T13:13:38;11.43;;;2.70;;
18228;SDS011;9239;50.932;3.142;2022-10-30T13:16:10;7.65;;;2.97;;
18228;SDS011;9239;50.932;3.142;2022-10-30T13:18:40;8.43;;;2.65;;
18228;SDS011;9239;50.932;3.142;2022-10-30T13:21:13;3.47;;;2.05;;
18228;SDS011;9239;50.932;3.142;2022-10-30T13:23:49;6.15;;;2.28;;
18228;SDS011;9239;50.932;3.142;2022-10-30T13:26:22;7.03;;;2.13;;
18228;SDS011;9239;50.932;3.142;2022-10-30T13:28:58;4.70;;;1.60;;
18228;SDS011;9239;50.932;3.142;2022-10-30T13:31:33;4.22;;;1.48;;
18228;SDS011;9239;50.932;3.142;2022-10-30T13:34:10;6.47;;;1.50;;
18228;SDS011;9239;50.932;3.142;2022-10-30T13:36:52;4.78;;;1.60;;
18228;SDS011;9239;50.932;3.142;2022-10-30T13:39:26;2.92;;;1.15;;
18228;SDS011;9239;50.932;3.142;2022-10-30T13:44:53;9.50;;;1.80;;
18228;SDS011;9239;50.932;3.142;2022-10-30T13:47:29;5.53;;;1.45;;
18228;SDS011;9239;50.932;3.142;2022-10-30T13:52:56;4.93;;;1.67;;
18228;SDS011;9239;50.932;3.142;2022-10-30T13:55:28;3.40;;;1.23;;
18228;SDS011;9239;50.932;3.142;2022-10-30T13:57:57;4.03;;;1.38;;
18228;SDS011;9239;50.932;3.142;2022-10-30T14:00:28;7.45;;;1.95;;
18228;SDS011;9239;50.932;3.142;2022-10-30T14:03:18;4.00;;;1.73;;
18228;SDS011;9239;50.932;3.142;2022-10-30T14:06:09;2.45;;;1.23;;
18228;SDS011;9239;50.932;3.142;2022-10-30T14:08:42;2.15;;;1.30;;
18228;SDS011;9239;50.932;3.142;2022-10-30T14:11:15;2.72;;;1.20;;
18228;SDS011;9239;50.932;3.142;2022-10-30T14:13:52;4.43;;;1.15;;
18228;SDS011;9239;50.932;3.142;2022-10-30T14:19:06;4.55;;;1.23;;
18228;SDS011;9239;50.932;3.142;2022-10-30T14:21:38;4.53;;;1.20;;
18228;SDS011;9239;50.932;3.142;2022-10-30T14:24:11;2.78;;;1.25;;
18228;SDS011;9239;50.932;3.142;2022-10-30T14:26:46;4.20;;;1.10;;
18228;SDS011;9239;50.932;3.142;2022-10-30T14:29:29;5.28;;;1.65;;
18228;SDS011;9239;50.932;3.142;2022-10-30T14:32:31;3.15;;;1.40;;
18228;SDS011;9239;50.932;3.142;2022-10-30T14:40:53;6.65;;;1.50;;
18228;SDS011;9239;50.932;3.142;2022-10-30T14:43:46;3.15;;;1.50;;
18228;SDS011;9239;50.932;3.142;2022-10-30T14:46:29;2.03;;;1.30;;
18228;SDS011;9239;50.932;3.142;2022-10-30T14:49:04;4.55;;;1.60;;
18228;SDS011;9239;50.932;3.142;2022-10-30T14:51:43;4.68;;;1.30;;
18228;SDS011;9239;50.932;3.142;2022-10-30T14:54:18;5.18;;;1.50;;
18228;SDS011;9239;50.932;3.142;2022-10-30T14:56:50;2.38;;;1.23;;
18228;SDS011;9239;50.932;3.142;2022-10-30T15:02:09;1.67;;;1.15;;
18228;SDS011;9239;50.932;3.142;2022-10-30T15:07:44;3.22;;;1.30;;
18228;SDS011;9239;50.932;3.142;2022-10-30T15:10:16;3.20;;;1.05;;
18228;SDS011;9239;50.932;3.142;2022-10-30T15:12:50;2.85;;;1.23;;
18228;SDS011;9239;50.932;3.142;2022-10-30T15:15:32;3.40;;;1.30;;
18228;SDS011;9239;50.932;3.142;2022-10-30T15:18:00;1.83;;;1.02;;
18228;SDS011;9239;50.932;3.142;2022-10-30T15:20:33;2.75;;;1.40;;
18228;SDS011;9239;50.932;3.142;2022-10-30T15:23:03;3.50;;;1.35;;
18228;SDS011;9239;50.932;3.142;2022-10-30T15:25:34;2.28;;;1.38;;
18228;SDS011;9239;50.932;3.142;2022-10-30T15:28:03;6.85;;;1.55;;